Time;durP1;ratioP1;P1;durP2;ratioP2;P2;SDS_P1;SDS_P2;PMS_P1;PMS_P2;Temp;Humidity;BMP_temperature;BMP_pressure;BME280_temperature;BME280_humidity;BME280_pressure;Samples;Min_cycle;Max_cycle;Signal;HPM_P1;HPM_P2
2021/12/17 00:01:10;;;;;;;13.22;10.82;;;;;;;5.71;84.29;100323.14;1691151;82;21060;-59
2021/12/17 00:03:47;;;;;;;18.30;11.23;;;;;;;5.70;84.52;100328.11;1682583;83;21073;-62
2021/12/17 00:06:29;;;;;;;15.00;11.73;;;;;;;5.77;84.09;100323.36;1679385;83;21176;-62
2021/12/17 00:08:50;;;;;;;13.03;10.13;;;;;;;5.77;84.02;100321.22;1669145;83;21551;-63
2021/12/17 00:11:17;;;;;;;12.97;10.77;;;;;;;5.70;84.22;100321.00;1673681;83;21554;-62
2021/12/17 00:13:45;;;;;;;13.17;11.60;;;;;;;5.65;84.23;100318.84;1709522;83;21028;-63
2021/12/17 00:16:20;;;;;;;13.90;10.27;;;;;;;5.71;84.07;100329.75;1705606;82;21037;-63
2021/12/17 00:48:39;;;;;;;7.20;5.70;;;;;;;5.66;83.04;100336.35;1723588;82;20967;-60
2021/12/17 00:51:56;;;;;;;9.23;6.58;;;;;;;5.26;82.43;100276.14;1700630;82;21076;-60
2021/12/17 00:53:56;;;;;;;7.27;6.13;;;;;;;5.59;82.70;100331.84;1699966;82;21089;-61
2021/12/17 00:56:22;;;;;;;6.63;5.50;;;;;;;5.52;83.15;100331.66;1704004;83;21029;-61
2021/12/17 00:58:48;;;;;;;5.70;4.40;;;;;;;5.50;83.19;100327.02;1706108;82;21041;-61
2021/12/17 01:01:17;;;;;;;5.15;4.65;;;;;;;5.49;82.96;100314.77;1713900;82;21062;-61
2021/12/17 01:03:45;;;;;;;4.87;4.40;;;;;;;5.55;82.59;100320.75;1719743;82;21037;-63
2021/12/17 01:06:11;;;;;;;4.80;3.97;;;;;;;5.57;82.47;100313.48;1703955;83;21346;-60
2021/12/17 01:08:39;;;;;;;4.30;3.90;;;;;;;5.55;82.55;100318.11;1694416;82;21044;-61
2021/12/17 01:11:08;;;;;;;4.80;4.37;;;;;;;5.50;82.53;100310.30;1707467;83;21092;-63
2021/12/17 01:13:41;;;;;;;3.77;3.47;;;;;;;5.50;82.52;100312.48;1693149;82;21057;-61
2021/12/17 01:16:27;;;;;;;4.33;3.17;;;;;;;5.55;82.48;100310.17;1688572;82;21586;-59
2021/12/17 01:36:02;;;;;;;5.00;3.00;;;;;;;5.39;83.30;100292.91;1708701;82;21053;-60
2021/12/17 01:43:49;;;;;;;2.27;2.13;;;;;;;5.32;83.30;100287.91;1702540;82;21029;-60
2021/12/17 01:46:21;;;;;;;3.37;2.00;;;;;;;5.29;83.44;100280.27;1717490;83;20998;-59
2021/12/17 01:49:05;;;;;;;3.90;2.33;;;;;;;5.25;83.79;100284.56;1705016;83;21083;-60
2021/12/17 01:55:48;;;;;;;2.43;1.77;;;;;;;5.12;84.40;100276.19;1714538;82;21072;-61
2021/12/17 01:59:18;;;;;;;;;;;;;;;5.10;84.25;100280.80;1715160;82;21575;-59
2021/12/17 01:59:35;;;;;;;2.27;1.17;;;;;;;5.12;84.10;100276.69;1644619;85;20136;-59
2021/12/17 02:02:02;;;;;;;3.20;1.83;;;;;;;5.11;84.21;100268.45;1703021;82;21036;-61
2021/12/17 02:04:32;;;;;;;4.77;1.60;;;;;;;5.06;84.31;100271.03;1705406;82;21766;-59
2021/12/17 02:07:00;;;;;;;5.23;1.57;;;;;;;4.99;84.63;100279.26;1694465;83;21094;-60
2021/12/17 02:31:59;;;;;;;2.17;0.73;;;;;;;5.14;83.79;100267.64;1703149;82;21123;-60
2021/12/17 02:34:46;;;;;;;0.60;0.40;;;;;;;5.08;83.97;100255.03;1709642;80;22080;-60
2021/12/17 02:36:58;;;;;;;2.10;0.50;;;;;;;5.04;83.90;100258.97;1704562;82;21479;-60
2021/12/17 02:47:39;;;;;;;3.07;0.80;;;;;;;5.02;82.98;100254.33;1698049;82;20976;-62
2021/12/17 02:50:07;;;;;;;2.80;1.07;;;;;;;4.97;83.25;100256.13;1709408;82;21558;-60
2021/12/17 02:52:37;;;;;;;2.77;0.70;;;;;;;4.95;83.19;100263.35;1665585;84;21058;-59
2021/12/17 02:55:05;;;;;;;3.33;0.93;;;;;;;4.98;83.17;100259.59;1712526;82;21535;-60
2021/12/17 02:57:35;;;;;;;3.63;1.00;;;;;;;5.03;82.94;100258.65;1732023;81;21045;-59
2021/12/17 03:00:06;;;;;;;2.30;0.90;;;;;;;5.05;82.76;100250.08;1738081;81;21007;-61
2021/12/17 03:02:37;;;;;;;3.43;0.73;;;;;;;5.04;82.71;100255.01;1739248;82;22221;-60
2021/12/17 03:05:03;;;;;;;2.23;0.60;;;;;;;4.96;82.98;100247.86;1734313;81;21081;-59
2021/12/17 03:07:30;;;;;;;3.67;0.60;;;;;;;4.92;83.11;100249.66;1702166;83;21678;-63
2021/12/17 03:10:04;;;;;;;0.62;0.60;;;;;;;4.93;83.01;100243.37;1694950;84;20983;-60
2021/12/17 03:12:40;;;;;;;1.17;0.80;;;;;;;4.99;82.97;100244.91;1675838;84;21506;-61
2021/12/17 03:15:18;;;;;;;1.27;0.60;;;;;;;5.02;82.62;100245.91;1687187;84;21079;-61
2021/12/17 03:25:53;;;;;;;0.70;0.20;;;;;;;4.85;83.28;100252.06;1577260;89;21402;-60
2021/12/17 03:28:21;;;;;;;2.40;0.50;;;;;;;4.87;82.89;100254.88;1634782;86;21102;-59
2021/12/17 03:30:48;;;;;;;0.30;0.30;;;;;;;4.91;82.64;100245.34;1662010;83;21061;-63
2021/12/17 03:33:14;;;;;;;2.43;0.43;;;;;;;4.91;82.65;100245.34;1712143;82;21058;-59
2021/12/17 03:35:42;;;;;;;1.53;0.40;;;;;;;4.87;82.82;100240.35;1713174;83;21107;-60
2021/12/17 03:38:08;;;;;;;1.70;0.57;;;;;;;4.82;83.28;100247.08;1719731;83;21042;-60
2021/12/17 03:40:35;;;;;;;0.90;0.40;;;;;;;4.79;83.44;100239.48;1714940;83;21534;-60
2021/12/17 03:43:11;;;;;;;1.00;0.77;;;;;;;4.75;83.61;100242.09;1716705;83;21495;-60
2021/12/17 03:45:31;;;;;;;1.60;0.77;;;;;;;4.80;83.62;100243.76;1727634;81;21068;-62
2021/12/17 03:47:59;;;;;;;1.27;0.37;;;;;;;4.85;83.31;100234.39;1731517;81;20973;-59
2021/12/17 03:50:26;;;;;;;3.65;1.00;;;;;;;4.88;83.25;100228.81;1737361;81;20985;-60
2021/12/17 03:52:52;;;;;;;2.83;1.42;;;;;;;4.84;82.83;100231.44;1734911;81;21066;-57
2021/12/17 03:55:20;;;;;;;1.60;1.10;;;;;;;4.73;83.26;100235.64;1737398;81;20975;-59
2021/12/17 03:57:48;;;;;;;3.70;0.60;;;;;;;4.69;83.79;100236.93;1724023;81;21014;-60
2021/12/17 04:00:14;;;;;;;3.45;0.95;;;;;;;4.74;83.62;100237.28;1721832;81;21002;-61
2021/12/17 04:02:46;;;;;;;1.70;1.10;;;;;;;4.81;83.33;100235.69;1721103;82;21049;-63
2021/12/17 04:05:18;;;;;;;2.60;0.70;;;;;;;4.87;83.28;100225.83;1716072;82;21503;-59
2021/12/17 04:07:59;;;;;;;3.60;1.00;;;;;;;4.89;83.21;100220.39;1709554;82;21101;-59
2021/12/17 04:10:48;;;;;;;2.43;0.77;;;;;;;4.81;83.46;100220.34;1714593;82;20982;-61
2021/12/17 04:13:42;;;;;;;1.80;1.07;;;;;;;4.76;83.75;100218.64;1711879;80;20990;-61
2021/12/17 04:15:53;;;;;;;0.90;0.60;;;;;;;4.76;83.80;100213.36;1700762;83;21164;-59
2021/12/17 04:18:11;;;;;;;5.20;0.77;;;;;;;4.77;83.71;100214.54;1706660;83;21053;-60
2021/12/17 04:20:38;;;;;;;1.25;0.85;;;;;;;4.84;83.51;100216.91;1719541;83;21021;-60
2021/12/17 04:23:04;;;;;;;1.85;0.78;;;;;;;4.91;83.34;100228.98;1702233;83;21033;-61
2021/12/17 04:25:30;;;;;;;3.50;1.17;;;;;;;4.94;83.14;100227.88;1692074;83;21096;-61
2021/12/17 04:27:59;;;;;;;4.13;0.80;;;;;;;4.90;83.23;100228.67;1692937;83;21061;-60
2021/12/17 04:30:26;;;;;;;3.43;0.90;;;;;;;4.87;83.02;100223.68;1692039;83;21257;-61
2021/12/17 04:32:55;;;;;;;1.67;1.03;;;;;;;4.82;82.87;100216.70;1663061;84;21541;-61
2021/12/17 04:35:21;;;;;;;3.90;0.93;;;;;;;4.85;82.58;100220.37;1692505;83;21562;-61
2021/12/17 04:37:49;;;;;;;5.67;0.87;;;;;;;4.91;82.35;100228.98;1692692;83;21075;-59
2021/12/17 04:40:18;;;;;;;3.80;1.40;;;;;;;4.94;82.14;100218.62;1688929;83;21005;-60
2021/12/17 04:45:16;;;;;;;2.07;0.43;;;;;;;4.83;82.25;100224.98;1703638;82;21001;-60
2021/12/17 04:58:51;;;;;;;2.23;0.70;;;;;;;4.86;81.92;100222.86;1711498;82;21070;-60
2021/12/17 05:01:19;;;;;;;2.03;0.60;;;;;;;4.85;82.15;100217.23;1655398;84;21173;-61
2021/12/17 05:03:45;;;;;;;4.58;0.88;;;;;;;4.88;81.51;100213.47;1636019;86;21003;-60
2021/12/17 05:06:12;;;;;;;1.05;0.20;;;;;;;4.92;80.86;100212.67;1672958;84;21476;-60
2021/12/17 05:08:39;;;;;;;0.90;0.40;;;;;;;4.92;80.75;100213.99;1671739;84;21056;-60
2021/12/17 05:18:12;;;;;;;1.43;0.47;;;;;;;4.84;80.77;100210.77;1668669;85;21006;-58
2021/12/17 05:19:45;;;;;;;3.13;0.70;;;;;;;4.77;80.78;100211.08;1593200;88;21042;-60
2021/12/17 05:22:08;;;;;;;1.07;0.43;;;;;;;4.73;80.89;100203.95;1654865;83;21145;-61
2021/12/17 05:24:31;;;;;;;4.27;0.60;;;;;;;4.66;81.26;100205.04;1712934;82;21532;-61
2021/12/17 05:26:57;;;;;;;2.33;0.60;;;;;;;4.63;81.40;100210.65;1716669;82;21033;-60
2021/12/17 05:29:23;;;;;;;1.75;0.50;;;;;;;4.59;81.38;100194.75;1710406;82;21015;-61
2021/12/17 05:31:49;;;;;;;1.82;0.50;;;;;;;4.62;81.22;100209.47;1715763;82;21030;-61
2021/12/17 05:34:18;;;;;;;2.10;0.87;;;;;;;4.68;80.99;100208.36;1709173;81;21140;-60
2021/12/17 05:36:46;;;;;;;2.83;1.10;;;;;;;4.65;81.03;100208.68;1718186;82;21026;-59
2021/12/17 05:39:17;;;;;;;4.87;0.83;;;;;;;4.59;81.44;100203.17;1709307;82;21078;-60
2021/12/17 05:41:45;;;;;;;3.27;1.35;;;;;;;4.52;81.60;100196.84;1715472;82;21040;-61
2021/12/17 05:44:25;;;;;;;3.40;1.10;;;;;;;4.49;81.73;100207.22;1708424;83;21348;-60
2021/12/17 05:46:52;;;;;;;2.70;0.70;;;;;;;4.55;81.64;100211.06;1712590;82;21032;-59
2021/12/17 05:49:24;;;;;;;1.97;1.03;;;;;;;4.67;81.38;100203.22;1714422;82;21042;-60
2021/12/17 05:51:52;;;;;;;2.63;0.70;;;;;;;4.73;81.13;100202.63;1716709;82;21035;-61
2021/12/17 05:54:19;;;;;;;1.07;0.80;;;;;;;4.68;80.77;100206.22;1708142;82;21066;-63
2021/12/17 05:56:47;;;;;;;3.70;1.17;;;;;;;4.55;80.95;100185.48;1699895;82;21364;-65
2021/12/17 05:59:15;;;;;;;2.57;0.80;;;;;;;4.60;81.16;100206.98;1713107;82;21013;-61
2021/12/17 06:01:41;;;;;;;1.80;0.90;;;;;;;4.67;81.30;100211.14;1676847;83;20949;-65
2021/12/17 06:04:07;;;;;;;1.65;1.10;;;;;;;4.77;80.91;100209.76;1710038;82;20984;-64
2021/12/17 06:06:40;;;;;;;4.23;1.47;;;;;;;4.82;80.89;100202.18;1705241;82;20978;-62
2021/12/17 06:09:08;;;;;;;3.27;1.20;;;;;;;4.78;80.78;100204.30;1703139;82;20971;-63
2021/12/17 06:11:36;;;;;;;3.03;1.00;;;;;;;4.73;80.47;100205.74;1660255;83;21051;-61
2021/12/17 06:14:05;;;;;;;2.53;1.10;;;;;;;4.68;80.59;100207.53;1708675;82;21026;-60
2021/12/17 06:16:34;;;;;;;1.67;1.27;;;;;;;4.70;80.55;100208.20;1707970;82;21010;-61
2021/12/17 06:19:02;;;;;;;3.67;0.60;;;;;;;4.72;80.36;100201.46;1710896;82;21053;-63
2021/12/17 06:21:29;;;;;;;4.20;1.27;;;;;;;4.80;80.44;100212.07;1709841;82;21514;-64
2021/12/17 06:23:58;;;;;;;6.67;2.07;;;;;;;4.77;80.50;100211.90;1738116;82;21004;-63
2021/12/17 06:26:25;;;;;;;4.83;1.60;;;;;;;4.75;80.47;100210.41;1740510;81;21069;-64
2021/12/17 06:28:53;;;;;;;4.37;1.20;;;;;;;4.69;80.60;100210.53;1739835;82;21024;-63
2021/12/17 06:31:23;;;;;;;4.80;1.77;;;;;;;4.71;80.69;100216.48;1737560;81;21016;-64
2021/12/17 06:33:51;;;;;;;5.20;1.47;;;;;;;4.81;80.53;100211.92;1736843;82;21211;-62
2021/12/17 06:36:18;;;;;;;3.47;2.30;;;;;;;4.81;80.13;100212.42;1723566;82;21049;-62
2021/12/17 06:38:44;;;;;;;3.87;2.33;;;;;;;4.71;80.43;100212.52;1723182;82;21141;-62
2021/12/17 06:41:11;;;;;;;;;;;;;;;4.65;80.89;100213.11;1719544;82;22181;-64
2021/12/17 06:43:40;;;;;;;4.50;1.43;;;;;;;4.66;81.15;100207.68;1737634;82;20141;-65
2021/12/17 06:46:24;;;;;;;2.93;0.87;;;;;;;4.61;81.03;100209.13;1745142;80;20985;-58
2021/12/17 06:48:49;;;;;;;3.67;0.87;;;;;;;4.68;80.67;100207.53;1745206;80;21070;-59
2021/12/17 06:59:54;;;;;;;3.57;1.20;;;;;;;4.55;80.87;100217.16;1694625;81;21011;-61
2021/12/17 07:10:47;;;;;;;3.80;0.97;;;;;;;4.77;80.54;100219.82;1660596;85;21105;-70
2021/12/17 07:21:34;;;;;;;1.77;1.13;;;;;;;4.77;80.34;100225.60;1665008;85;20975;-63
2021/12/17 07:34:20;;;;;;;1.80;0.60;;;;;;;4.73;79.89;100220.27;1650130;85;21096;-65
2021/12/17 07:39:28;;;;;;;1.53;0.70;;;;;;;4.82;79.35;100221.52;1656275;85;21022;-65
2021/12/17 07:42:13;;;;;;;5.37;1.10;;;;;;;4.81;79.32;100219.84;1692440;83;21090;-65
2021/12/17 07:44:41;;;;;;;3.33;0.40;;;;;;;4.79;79.55;100220.99;1668479;83;21132;-64
2021/12/17 07:47:16;;;;;;;0.73;0.30;;;;;;;4.75;79.63;100222.28;1705188;83;21058;-65
2021/12/17 07:49:44;;;;;;;0.73;0.30;;;;;;;4.68;79.88;100222.06;1697287;83;21479;-74
2021/12/17 07:52:10;;;;;;;0.78;0.50;;;;;;;4.65;80.02;100211.79;1695500;83;21027;-62
2021/12/17 07:54:37;;;;;;;2.17;0.53;;;;;;;4.64;80.05;100218.07;1701274;83;21046;-62
2021/12/17 07:57:05;;;;;;;5.10;0.30;;;;;;;4.67;80.05;100216.42;1679977;84;21031;-67
2021/12/17 07:59:35;;;;;;;1.27;0.53;;;;;;;4.61;80.06;100222.33;1650948;85;21635;-64
2021/12/17 08:02:03;;;;;;;1.10;0.43;;;;;;;4.53;80.35;100211.20;1690942;83;21080;-64
2021/12/17 08:04:30;;;;;;;1.23;0.30;;;;;;;4.47;80.81;100220.56;1700376;83;21093;-64
2021/12/17 08:06:59;;;;;;;1.17;0.67;;;;;;;4.47;81.14;100219.24;1689951;83;21088;-63
2021/12/17 08:09:28;;;;;;;1.43;0.60;;;;;;;4.49;81.31;100222.56;1697697;83;21165;-64
2021/12/17 08:11:56;;;;;;;1.60;0.60;;;;;;;4.49;81.96;100214.64;1692951;83;21546;-62
2021/12/17 08:14:26;;;;;;;2.17;0.60;;;;;;;4.47;81.90;100221.06;1694590;83;21050;-63
2021/12/17 08:17:06;;;;;;;1.50;0.50;;;;;;;4.43;82.60;100221.03;1701912;83;21110;-65
2021/12/17 08:25:15;;;;;;;3.30;0.70;;;;;;;4.34;83.11;100213.52;1691187;83;21051;-63
2021/12/17 08:28:01;;;;;;;0.63;0.60;;;;;;;4.32;83.45;100210.20;1692672;83;21057;-64
2021/12/17 08:30:21;;;;;;;2.10;0.90;;;;;;;4.32;83.92;100219.44;1671288;83;21105;-66
2021/12/17 08:32:42;;;;;;;0.80;0.70;;;;;;;4.23;84.36;100214.56;1700346;83;21056;-64
2021/12/17 08:35:10;;;;;;;2.03;0.70;;;;;;;4.18;84.75;100208.08;1709386;83;21050;-63
2021/12/17 08:37:39;;;;;;;2.13;0.87;;;;;;;4.18;84.59;100217.31;1712951;83;21062;-67
2021/12/17 08:40:08;;;;;;;0.77;0.60;;;;;;;4.21;84.70;100214.38;1685629;83;21002;-63
2021/12/17 08:42:49;;;;;;;2.37;1.30;;;;;;;4.19;85.07;100215.84;1704779;83;21070;-66
2021/12/17 08:45:18;;;;;;;3.37;0.93;;;;;;;4.13;85.68;100216.45;1712898;82;20990;-67
2021/12/17 08:49:28;;;;;;;3.50;1.10;;;;;;;4.12;85.55;100209.50;1812109;77;23154;-64
2021/12/17 08:51:58;;;;;;;1.97;1.20;;;;;;;4.12;84.89;100210.00;1768630;78;21014;-66
2021/12/17 08:54:24;;;;;;;3.80;1.90;;;;;;;4.21;85.06;100209.11;1768518;78;21851;-65
2021/12/17 08:56:50;;;;;;;4.90;1.87;;;;;;;4.27;84.89;100197.45;1759594;80;21523;-68
2021/12/17 08:59:18;;;;;;;5.03;1.43;;;;;;;4.24;84.52;100199.09;1762236;80;21088;-63
2021/12/17 09:02:00;;;;;;;4.47;2.90;;;;;;;4.14;84.69;100204.09;1692663;82;20987;-63
2021/12/17 09:04:29;;;;;;;4.10;1.30;;;;;;;4.07;84.61;100202.05;1659727;85;21062;-63
2021/12/17 09:06:57;;;;;;;1.50;1.40;;;;;;;4.14;84.54;100200.13;1693824;84;21562;-63
2021/12/17 09:09:25;;;;;;;1.50;1.03;;;;;;;4.16;84.45;100195.52;1682509;83;21561;-64
2021/12/17 09:11:52;;;;;;;1.83;1.33;;;;;;;4.15;84.92;100185.97;1694352;83;21075;-67
2021/12/17 09:14:23;;;;;;;2.97;1.57;;;;;;;4.14;84.87;100197.48;1675489;84;21112;-63
2021/12/17 09:16:51;;;;;;;4.23;1.23;;;;;;;4.21;84.82;100200.70;1695337;84;21565;-64
2021/12/17 09:19:20;;;;;;;3.03;1.53;;;;;;;4.33;84.54;100192.05;1708218;82;21548;-63
2021/12/17 09:21:49;;;;;;;2.47;1.10;;;;;;;4.45;83.62;100189.53;1705885;82;21604;-63
2021/12/17 09:24:19;;;;;;;2.17;1.40;;;;;;;4.48;82.94;100186.60;1669423;84;21041;-64
2021/12/17 09:27:04;;;;;;;3.37;0.70;;;;;;;4.46;83.11;100175.38;1648427;85;21060;-63
2021/12/17 09:29:33;;;;;;;3.07;1.00;;;;;;;4.47;82.70;100178.33;1640231;85;21070;-63
2021/12/17 09:31:59;;;;;;;2.80;1.15;;;;;;;4.54;82.03;100175.92;1679393;84;21052;-62
2021/12/17 09:34:25;;;;;;;1.55;0.72;;;;;;;4.61;81.44;100180.08;1670907;84;20978;-63
2021/12/17 09:36:51;;;;;;;3.15;1.05;;;;;;;4.60;81.42;100173.98;1690642;84;21109;-64
2021/12/17 09:39:19;;;;;;;;;;;;;;;4.58;81.25;100175.95;1717605;82;21281;-64
2021/12/17 09:41:50;;;;;;;1.40;0.40;;;;;;;4.58;80.59;100181.23;1721209;82;20645;-63
2021/12/17 09:44:15;;;;;;;4.40;0.63;;;;;;;4.57;80.38;100172.14;1701712;83;21536;-64
2021/12/17 09:46:44;;;;;;;2.33;0.57;;;;;;;4.63;80.19;100174.16;1720052;83;21687;-62
2021/12/17 09:49:15;;;;;;;4.03;0.83;;;;;;;4.65;80.35;100166.91;1715395;83;21066;-64
2021/12/17 09:51:42;;;;;;;2.00;1.03;;;;;;;4.58;80.08;100162.75;1709664;83;21053;-63
2021/12/17 09:54:11;;;;;;;3.43;0.77;;;;;;;4.53;79.88;100160.23;1723389;83;21053;-63
2021/12/17 09:56:38;;;;;;;1.03;0.60;;;;;;;4.50;79.88;100166.63;1701053;82;21010;-65
2021/12/17 09:59:06;;;;;;;3.73;0.80;;;;;;;4.49;79.92;100165.80;1691232;83;20965;-62
2021/12/17 10:01:39;;;;;;;1.33;0.77;;;;;;;4.48;79.91;100158.03;1690900;83;21121;-62
2021/12/17 10:04:19;;;;;;;1.70;0.70;;;;;;;4.49;79.97;100161.84;1666461;84;21592;-64
2021/12/17 10:06:48;;;;;;;2.40;1.40;;;;;;;4.53;79.74;100157.59;1692337;84;21157;-66
2021/12/17 10:09:16;;;;;;;2.97;0.93;;;;;;;4.55;80.00;100159.59;1688964;83;21033;-65
2021/12/17 10:12:02;;;;;;;2.13;0.40;;;;;;;4.60;79.82;100148.91;1666282;84;21021;-62
2021/12/17 10:14:29;;;;;;;2.67;1.17;;;;;;;4.69;79.98;100139.23;1670492;84;21049;-68
2021/12/17 10:17:07;;;;;;;2.17;0.60;;;;;;;4.66;79.56;100148.78;1686731;84;21092;-64
2021/12/17 10:19:47;;;;;;;2.23;1.20;;;;;;;4.61;79.36;100155.00;1672684;85;21144;-62
2021/12/17 10:22:17;;;;;;;1.73;0.40;;;;;;;4.54;79.12;100133.69;1687882;84;21112;-63
2021/12/17 10:25:02;;;;;;;1.73;0.63;;;;;;;4.60;78.09;100144.12;1677326;84;21022;-64
2021/12/17 10:27:35;;;;;;;0.93;0.40;;;;;;;4.67;77.80;100149.95;1676456;85;21486;-64
2021/12/17 10:30:21;;;;;;;1.63;0.90;;;;;;;4.67;77.64;100151.73;1675296;84;21316;-64
2021/12/17 10:32:52;;;;;;;3.23;0.80;;;;;;;4.63;77.61;100145.11;1691037;84;21016;-66
2021/12/17 10:35:25;;;;;;;1.97;1.10;;;;;;;4.56;77.75;100139.64;1678249;83;21042;-73
2021/12/17 10:37:56;;;;;;;5.70;0.93;;;;;;;4.60;77.53;100143.62;1678447;84;21993;-64
2021/12/17 10:40:46;;;;;;;3.73;1.00;;;;;;;4.64;77.17;100136.23;1677338;84;21592;-63
2021/12/17 10:43:21;;;;;;;2.13;0.70;;;;;;;4.61;77.12;100131.24;1654145;85;21524;-67
2021/12/17 10:54:00;;;;;;;1.15;0.40;;;;;;;4.56;76.69;100134.83;1690073;84;21019;-72
2021/12/17 10:56:35;;;;;;;0.87;0.50;;;;;;;4.55;76.80;100131.37;1695308;84;21142;-62
2021/12/17 10:59:09;;;;;;;0.70;0.50;;;;;;;4.54;76.98;100132.37;1692962;82;21152;-64
2021/12/17 11:01:46;;;;;;;3.23;1.07;;;;;;;4.59;77.14;100128.75;1654902;84;21011;-64
2021/12/17 11:04:31;;;;;;;2.60;0.60;;;;;;;4.55;76.47;100108.11;1663063;84;21582;-68
2021/12/17 11:07:08;;;;;;;1.83;0.60;;;;;;;4.69;76.36;100123.40;1672474;84;21100;-64
2021/12/17 11:09:40;;;;;;;1.87;1.30;;;;;;;4.68;76.63;100128.33;1665432;84;21046;-64
2021/12/17 11:12:38;;;;;;;1.33;0.47;;;;;;;4.71;76.57;100120.11;1667710;84;21046;-65
2021/12/17 11:15:22;;;;;;;3.85;2.27;;;;;;;4.72;76.22;100120.42;1669043;84;21037;-65
2021/12/17 11:18:03;;;;;;;0.83;0.40;;;;;;;4.77;75.81;100122.62;1668674;84;21007;-68
2021/12/17 11:20:33;;;;;;;0.97;0.60;;;;;;;4.85;75.68;100128.75;1668883;84;21063;-64
2021/12/17 11:23:06;;;;;;;0.60;0.40;;;;;;;4.88;75.23;100127.13;1643933;86;21448;-63
2021/12/17 11:25:32;;;;;;;1.27;0.60;;;;;;;4.81;73.47;100125.28;1664861;84;22120;-62
2021/12/17 11:27:59;;;;;;;1.20;0.23;;;;;;;4.67;73.98;100138.53;1666635;85;21039;-65
2021/12/17 11:30:32;;;;;;;0.47;0.20;;;;;;;4.53;74.44;100141.26;1662795;84;21041;-63
2021/12/17 11:33:04;;;;;;;1.80;0.47;;;;;;;4.45;75.41;100129.33;1660842;84;21051;-63
2021/12/17 11:35:35;;;;;;;0.90;0.30;;;;;;;4.24;75.62;100098.01;1659677;84;22102;-63
2021/12/17 11:38:12;;;;;;;2.23;0.50;;;;;;;4.36;76.82;100134.20;1658003;84;21027;-63
2021/12/17 11:40:42;;;;;;;;;;;;;;;4.21;76.92;100136.55;1663681;85;21004;-63
2021/12/17 11:43:37;;;;;;;1.03;0.30;;;;;;;4.05;77.97;100138.07;1666271;84;20234;-62
2021/12/17 11:46:15;;;;;;;1.47;0.67;;;;;;;3.95;78.26;100151.80;1687851;84;21027;-63
2021/12/17 11:48:53;;;;;;;2.20;0.60;;;;;;;4.00;78.54;100159.28;1647021;85;21127;-63
2021/12/17 11:51:24;;;;;;;1.23;0.33;;;;;;;4.03;78.61;100153.22;1693459;84;21102;-65
2021/12/17 11:54:03;;;;;;;4.67;0.87;;;;;;;4.03;78.74;100157.17;1694108;84;22468;-62
2021/12/17 11:56:45;;;;;;;4.17;2.53;;;;;;;4.01;79.17;100150.38;1689947;83;21039;-63
2021/12/17 11:59:31;;;;;;;3.10;1.10;;;;;;;3.97;79.92;100151.16;1642288;85;21102;-64
2021/12/17 12:02:04;;;;;;;0.88;0.70;;;;;;;3.96;80.17;100149.52;1700324;84;20955;-62
2021/12/17 12:04:59;;;;;;;1.57;0.50;;;;;;;4.02;80.26;100148.91;1699577;82;21427;-63
2021/12/17 12:07:31;;;;;;;1.73;0.80;;;;;;;4.14;80.37;100148.19;1690422;84;21541;-63
2021/12/17 12:10:14;;;;;;;1.67;0.90;;;;;;;4.18;79.70;100148.72;1701082;84;21015;-63
2021/12/17 12:12:52;;;;;;;2.27;0.63;;;;;;;4.11;79.74;100151.14;1704318;82;21026;-63
2021/12/17 12:15:31;;;;;;;1.97;0.90;;;;;;;4.04;80.07;100148.77;1676737;84;21042;-63
2021/12/17 12:18:06;;;;;;;2.97;1.60;;;;;;;4.01;80.39;100153.86;1660860;86;21034;-63
2021/12/17 12:20:55;;;;;;;3.60;0.97;;;;;;;4.02;80.50;100151.55;1670645;85;21149;-63
2021/12/17 12:23:32;;;;;;;2.17;0.80;;;;;;;4.13;80.21;100149.19;1697144;81;21097;-63
2021/12/17 12:26:14;;;;;;;3.17;1.03;;;;;;;4.17;80.24;100153.17;1725380;82;21149;-63
2021/12/17 12:28:49;;;;;;;2.03;0.70;;;;;;;4.17;80.22;100145.75;1694083;84;21497;-65
2021/12/17 12:31:33;;;;;;;1.13;0.70;;;;;;;4.20;80.39;100152.03;1686192;84;21110;-63
2021/12/17 12:34:12;;;;;;;3.00;1.13;;;;;;;4.21;80.36;100144.47;1710717;82;21522;-63
2021/12/17 12:37:05;;;;;;;2.63;1.27;;;;;;;4.27;79.90;100153.91;1714911;82;21043;-63
2021/12/17 12:39:53;;;;;;;2.13;1.43;;;;;;;4.39;79.36;100147.92;1732217;82;21063;-63
2021/12/17 12:42:28;;;;;;;2.07;1.30;;;;;;;4.43;79.11;100155.87;1720150;82;21292;-64
2021/12/17 12:45:05;;;;;;;1.22;0.30;;;;;;;4.30;78.46;100167.31;1716709;82;20998;-62
2021/12/17 12:47:50;;;;;;;1.93;0.20;;;;;;;4.16;78.34;100161.23;1720718;81;21604;-64
2021/12/17 12:50:20;;;;;;;0.10;0.10;;;;;;;3.96;78.27;100172.44;1725025;81;21078;-64
2021/12/17 12:53:04;;;;;;;0.60;0.13;;;;;;;3.86;79.09;100173.80;1697570;82;20992;-64
2021/12/17 12:55:43;;;;;;;4.83;0.50;;;;;;;3.74;78.66;100165.77;1712912;82;21104;-63
2021/12/17 12:58:18;;;;;;;0.77;0.70;;;;;;;3.57;78.86;100166.89;1732467;81;21059;-65
2021/12/17 13:00:54;;;;;;;4.00;0.77;;;;;;;3.27;79.71;100130.63;1727549;81;21158;-63
2021/12/17 13:03:28;;;;;;;3.40;0.20;;;;;;;3.46;80.50;100167.09;1725437;81;21112;-62
2021/12/17 13:05:56;;;;;;;1.00;0.20;;;;;;;3.46;80.33;100169.73;1729261;81;21041;-63
2021/12/17 13:08:25;;;;;;;3.37;0.20;;;;;;;3.49;80.18;100171.58;1704333;82;21179;-65
2021/12/17 13:10:55;;;;;;;1.73;0.40;;;;;;;3.49;80.11;100173.39;1712175;81;21096;-64
2021/12/17 13:24:15;;;;;;;0.83;0.10;;;;;;;3.44;77.95;100189.63;1671248;84;20999;-64
2021/12/17 13:26:50;;;;;;;1.33;0.50;;;;;;;3.45;77.99;100185.21;1635582;86;21101;-63
2021/12/17 13:29:32;;;;;;;2.80;0.20;;;;;;;3.43;78.22;100189.30;1690682;82;21086;-63
2021/12/17 13:32:09;;;;;;;1.90;0.50;;;;;;;3.37;78.67;100183.30;1693937;82;21104;-64
2021/12/17 13:34:56;;;;;;;1.00;0.60;;;;;;;3.32;79.17;100189.48;1694681;83;21046;-64
2021/12/17 13:37:26;;;;;;;1.50;1.30;;;;;;;3.30;79.48;100190.95;1689499;84;21067;-64
2021/12/17 13:40:07;;;;;;;0.97;0.53;;;;;;;3.39;79.67;100181.81;1699408;84;21088;-63
2021/12/17 13:42:40;;;;;;;4.20;0.97;;;;;;;3.53;79.25;100184.48;1696694;83;21077;-64
2021/12/17 13:45:16;;;;;;;1.17;0.40;;;;;;;3.64;79.25;100189.06;1698309;83;21017;-63
2021/12/17 13:47:54;;;;;;;1.30;0.62;;;;;;;3.70;79.39;100188.46;1699391;83;21053;-63
2021/12/17 13:50:28;;;;;;;2.00;1.32;;;;;;;3.68;79.45;100179.05;1697346;83;21068;-62
2021/12/17 13:53:04;;;;;;;1.10;1.00;;;;;;;3.64;79.58;100186.42;1704819;83;21035;-63
2021/12/17 13:55:41;;;;;;;2.00;1.50;;;;;;;3.62;79.99;100186.23;1701549;83;21052;-64
2021/12/17 13:58:11;;;;;;;2.37;1.10;;;;;;;3.60;80.42;100189.02;1696098;84;21045;-65
2021/12/17 14:00:42;;;;;;;1.27;1.13;;;;;;;3.64;80.39;100186.42;1699560;83;21037;-63
2021/12/17 14:03:13;;;;;;;2.10;1.30;;;;;;;3.74;80.18;100189.49;1694168;83;21556;-63
2021/12/17 14:05:40;;;;;;;3.93;2.70;;;;;;;3.74;80.16;100199.55;1698319;84;20970;-64
2021/12/17 14:08:15;;;;;;;4.37;3.10;;;;;;;3.67;79.84;100204.59;1701769;83;21032;-63
2021/12/17 14:10:42;;;;;;;3.90;2.67;;;;;;;3.56;79.84;100210.52;1691074;83;21022;-62
2021/12/17 14:13:24;;;;;;;1.83;1.47;;;;;;;3.35;79.93;100207.63;1733637;82;21006;-63
2021/12/17 14:15:53;;;;;;;1.87;1.77;;;;;;;3.13;81.25;100207.52;1737311;81;21069;-62
2021/12/17 14:18:24;;;;;;;2.70;2.27;;;;;;;3.07;81.27;100202.33;1736177;81;21034;-63
2021/12/17 14:20:56;;;;;;;4.20;2.73;;;;;;;3.10;81.96;100219.64;1737450;81;21053;-62
2021/12/17 14:23:27;;;;;;;2.10;1.73;;;;;;;3.02;82.09;100220.84;1741946;81;21149;-64
2021/12/17 14:25:59;;;;;;;1.27;0.70;;;;;;;2.83;83.17;100229.12;1730004;81;21054;-63
2021/12/17 14:28:30;;;;;;;3.93;1.63;;;;;;;2.76;83.53;100237.23;1740075;81;21012;-64
2021/12/17 14:31:06;;;;;;;5.13;2.27;;;;;;;2.69;83.68;100233.49;1741488;81;22164;-62
2021/12/17 14:33:40;;;;;;;1.97;0.70;;;;;;;2.47;84.09;100226.24;1730359;81;21014;-63
2021/12/17 14:36:11;;;;;;;1.80;1.40;;;;;;;2.29;84.71;100212.11;1733076;81;21118;-63
2021/12/17 14:38:51;;;;;;;1.63;0.33;;;;;;;2.17;84.79;100202.22;1742081;81;21533;-62
2021/12/17 14:41:29;;;;;;;3.23;1.47;;;;;;;2.19;84.90;100204.71;1720420;82;21007;-62
2021/12/17 14:43:59;;;;;;;0.57;0.20;;;;;;;2.24;84.85;100210.37;1740225;81;21062;-62
2021/12/17 14:46:24;;;;;;;0.70;0.60;;;;;;;2.27;85.12;100206.98;1727792;82;21133;-63
2021/12/17 15:02:45;;;;;;;1.13;0.90;;;;;;;2.43;86.04;100201.64;1721255;81;21546;-62
2021/12/17 15:04:55;;;;;;;0.40;0.40;;;;;;;2.48;86.02;100208.16;1737043;81;21578;-61
2021/12/17 15:07:23;;;;;;;1.27;1.00;;;;;;;2.60;85.84;100219.85;1734907;81;21522;-63